createdAt,value
2018-06-19T00:01:17.891Z,1.62
2018-06-19T00:03:46.915Z,1.90
2018-06-19T00:06:15.925Z,1.80
2018-06-19T00:08:45.032Z,1.85
2018-06-19T00:11:14.243Z,1.73
2018-06-19T00:13:43.222Z,1.70
2018-06-19T00:16:12.267Z,1.67
2018-06-19T00:18:53.935Z,1.50
2018-06-19T00:21:30.975Z,1.80
2018-06-19T00:24:00.032Z,1.90
2018-06-19T00:26:29.798Z,1.80
2018-06-19T00:28:58.954Z,1.73
2018-06-19T00:31:27.980Z,1.80
2018-06-19T00:33:57.011Z,2.02
2018-06-19T00:36:25.886Z,1.60
2018-06-19T00:38:54.930Z,1.90
2018-06-19T00:41:23.883Z,1.72
2018-06-19T00:43:53.842Z,1.65
2018-06-19T00:46:25.274Z,1.80
2018-06-19T00:48:54.422Z,2.03
2018-06-19T00:51:23.039Z,2.12
2018-06-19T00:53:52.039Z,2.00
2018-06-19T00:56:32.087Z,1.87
2018-06-19T00:59:01.202Z,1.90
2018-06-19T01:01:30.183Z,1.80
2018-06-19T01:03:59.347Z,2.00
2018-06-19T01:06:28.367Z,1.90
2018-06-19T01:08:57.421Z,1.87
2018-06-19T01:11:26.494Z,2.10
2018-06-19T01:13:55.655Z,2.00
2018-06-19T01:16:24.703Z,2.10
2018-06-19T01:18:54.198Z,2.15
2018-06-19T01:21:23.251Z,2.30
2018-06-19T01:23:52.270Z,2.10
2018-06-19T01:26:21.247Z,1.90
2018-06-19T01:28:50.407Z,1.77
2018-06-19T01:31:19.427Z,2.30
2018-06-19T01:33:48.458Z,1.90
2018-06-19T01:36:17.491Z,2.30
2018-06-19T01:38:46.462Z,1.85
2018-06-19T01:41:15.490Z,1.85
2018-06-19T01:43:44.494Z,2.17
2018-06-19T01:46:13.656Z,2.10
2018-06-19T01:48:42.711Z,2.27
2018-06-19T01:51:11.833Z,2.50
2018-06-19T01:53:41.031Z,2.22
2018-06-19T01:56:10.559Z,2.72
2018-06-19T01:58:39.755Z,2.40
2018-06-19T02:01:09.385Z,2.40
2018-06-19T02:03:38.650Z,2.08
2018-06-19T02:06:07.955Z,2.25
2018-06-19T02:08:37.133Z,2.22
2018-06-19T02:11:06.579Z,2.27
2018-06-19T02:13:36.183Z,2.00
2018-06-19T02:16:05.516Z,2.15
2018-06-19T02:18:34.726Z,2.22
2018-06-19T02:21:04.163Z,2.27
2018-06-19T02:23:33.412Z,2.45
2018-06-19T02:26:02.655Z,2.20
2018-06-19T02:28:31.640Z,2.60
2018-06-19T02:31:00.595Z,2.22
2018-06-19T02:33:29.523Z,2.20
2018-06-19T02:35:58.504Z,2.30
2018-06-19T02:38:27.559Z,2.83
2018-06-19T02:40:56.509Z,2.02
2018-06-19T02:43:25.545Z,2.40
2018-06-19T02:45:54.550Z,2.50
2018-06-19T02:48:23.579Z,2.37
2018-06-19T02:50:52.743Z,2.33
2018-06-19T02:53:21.884Z,2.52
2018-06-19T02:55:50.852Z,2.50
2018-06-19T02:58:19.882Z,2.60
2018-06-19T03:00:55.094Z,2.30
2018-06-19T03:03:24.151Z,2.87
2018-06-19T03:05:53.425Z,2.65
2018-06-19T03:08:22.463Z,2.60
2018-06-19T03:10:51.049Z,2.25
2018-06-19T03:13:19.670Z,2.40
2018-06-19T03:15:48.633Z,2.27
2018-06-19T03:18:17.833Z,2.00
2018-06-19T03:20:47.163Z,2.30
2018-06-19T03:23:16.220Z,2.70
2018-06-19T03:25:45.167Z,2.30
2018-06-19T03:28:14.120Z,2.50
2018-06-19T03:30:43.182Z,2.70
2018-06-19T03:33:12.343Z,2.70
2018-06-19T03:35:41.395Z,2.50
2018-06-19T03:38:10.498Z,3.00
2018-06-19T03:40:39.571Z,2.83
2018-06-19T03:43:08.847Z,2.50
2018-06-19T03:45:37.885Z,2.67
2018-06-19T03:48:07.042Z,2.60
2018-06-19T03:50:36.338Z,2.50
2018-06-19T03:53:05.616Z,2.62
2018-06-19T03:55:35.049Z,2.62
2018-06-19T03:58:04.410Z,2.70
2018-06-19T04:00:33.586Z,2.62
2018-06-19T04:03:03.159Z,2.83
2018-06-19T04:05:32.318Z,2.67
2018-06-19T04:08:01.424Z,2.47
2018-06-19T04:10:30.532Z,2.57
2018-06-19T04:12:59.615Z,2.45
2018-06-19T04:15:28.683Z,2.80
2018-06-19T04:17:57.883Z,2.47
2018-06-19T04:20:26.643Z,2.65
2018-06-19T04:22:55.755Z,2.85
2018-06-19T04:25:24.836Z,3.35
2018-06-19T04:27:53.795Z,2.70
2018-06-19T04:30:22.816Z,2.40
2018-06-19T04:32:51.783Z,2.40
2018-06-19T04:35:20.810Z,2.58
2018-06-19T04:37:49.792Z,2.50
2018-06-19T04:40:18.839Z,2.52
2018-06-19T04:42:47.415Z,2.58
2018-06-19T04:45:16.328Z,2.67
2018-06-19T04:47:45.327Z,2.80
2018-06-19T04:50:14.507Z,2.55
2018-06-19T04:52:43.692Z,2.90
2018-06-19T04:55:12.875Z,2.70
2018-06-19T04:57:41.839Z,2.75
2018-06-19T05:00:11.051Z,3.30
2018-06-19T05:02:40.276Z,3.27
2018-06-19T05:05:09.404Z,3.10
2018-06-19T05:07:38.571Z,3.33
2018-06-19T05:10:07.872Z,3.55
2018-06-19T05:12:37.173Z,3.63
2018-06-19T05:15:06.453Z,3.33
2018-06-19T05:17:35.715Z,3.27
2018-06-19T05:20:05.108Z,3.63
2018-06-19T05:22:34.726Z,3.47
2018-06-19T05:25:04.153Z,3.72
2018-06-19T05:27:33.484Z,3.75
2018-06-19T05:30:02.689Z,3.45
2018-06-19T05:32:31.773Z,3.37
2018-06-19T05:35:00.872Z,3.62
2018-06-19T05:37:29.857Z,4.05
2018-06-19T05:39:59.052Z,3.63
2018-06-19T05:42:28.087Z,3.98
2018-06-19T05:44:57.410Z,3.22
2018-06-19T05:47:26.579Z,4.22
2018-06-19T05:49:55.675Z,3.65
2018-06-19T05:52:24.699Z,3.70
2018-06-19T05:54:53.819Z,4.33
2018-06-19T05:57:22.943Z,3.67
2018-06-19T05:59:51.915Z,4.53
2018-06-19T06:02:20.927Z,3.57
2018-06-19T06:04:49.897Z,3.67
2018-06-19T06:07:20.495Z,3.83
2018-06-19T06:09:49.806Z,3.60
2018-06-19T06:12:18.782Z,3.52
2018-06-19T06:14:47.775Z,3.60
2018-06-19T06:17:16.827Z,3.25
2018-06-19T06:19:46.004Z,3.72
2018-06-19T06:22:15.079Z,3.73
2018-06-19T06:24:44.124Z,3.42
2018-06-19T06:27:13.647Z,3.70
2018-06-19T06:29:42.750Z,3.87
2018-06-19T06:32:12.257Z,3.70
2018-06-19T06:34:41.784Z,2.95
2018-06-19T06:37:11.167Z,3.70
2018-06-19T06:39:40.539Z,3.25
2018-06-19T06:42:09.775Z,4.08
2018-06-19T06:44:39.018Z,3.70
2018-06-19T06:47:08.780Z,4.03
2018-06-19T06:49:38.003Z,3.55
2018-06-19T06:52:08.175Z,3.20
2018-06-19T06:54:37.514Z,3.80
2018-06-19T06:57:06.997Z,3.27
2018-06-19T06:59:36.393Z,3.30
2018-06-19T07:02:06.195Z,3.40
2018-06-19T07:04:35.846Z,3.65
2018-06-19T07:07:05.783Z,3.72
2018-06-19T07:09:35.574Z,3.98
2018-06-19T07:12:04.635Z,3.20
2018-06-19T07:14:34.176Z,3.60
2018-06-19T07:17:03.791Z,4.28
2018-06-19T07:19:33.468Z,3.83
2018-06-19T07:22:02.606Z,3.37
2018-06-19T07:24:32.104Z,3.87
2018-06-19T07:27:01.206Z,4.33
2018-06-19T07:29:30.548Z,4.53
2018-06-19T07:31:59.687Z,3.70
2018-06-19T07:34:28.711Z,4.17
2018-06-19T07:36:57.903Z,4.10
2018-06-19T07:39:26.992Z,3.60
2018-06-19T07:41:55.991Z,4.47
2018-06-19T07:44:25.111Z,4.40
2018-06-19T07:46:54.268Z,4.15
2018-06-19T07:49:23.339Z,3.57
2018-06-19T07:51:52.527Z,4.80
2018-06-19T07:54:21.687Z,4.80
2018-06-19T07:56:50.743Z,4.62
2018-06-19T07:59:20.179Z,5.08
2018-06-19T08:01:49.264Z,3.90
2018-06-19T08:04:18.267Z,4.78
2018-06-19T08:06:47.278Z,4.37
2018-06-19T08:09:16.283Z,5.17
2018-06-19T08:11:45.298Z,4.70
2018-06-19T08:14:14.371Z,4.67
2018-06-19T08:16:43.459Z,3.92
2018-06-19T08:19:12.494Z,5.70
2018-06-19T08:21:41.856Z,6.42
2018-06-19T08:24:11.422Z,5.90
2018-06-19T08:26:40.521Z,5.17
2018-06-19T08:29:09.561Z,5.00
2018-06-19T08:31:38.727Z,3.67
2018-06-19T08:34:08.099Z,5.25
2018-06-19T08:36:36.842Z,4.80
2018-06-19T08:39:08.977Z,4.58
2018-06-19T08:41:38.912Z,4.80
2018-06-19T08:44:07.946Z,5.35
2018-06-19T08:46:38.590Z,5.40
2018-06-19T08:49:07.925Z,4.20
2018-06-19T08:51:37.312Z,6.33
2018-06-19T08:54:06.520Z,6.75
2018-06-19T08:56:36.620Z,6.60
2018-06-19T08:59:06.818Z,5.25
2018-06-19T09:01:36.315Z,5.95
2018-06-19T09:04:06.294Z,6.47
2018-06-19T09:06:35.491Z,6.47
2018-06-19T09:09:06.995Z,5.45
2018-06-19T09:11:36.392Z,6.85
2018-06-19T09:14:06.138Z,6.30
2018-06-19T09:16:35.344Z,5.72
2018-06-19T09:19:04.578Z,7.03
2018-06-19T09:21:33.670Z,8.43
2018-06-19T09:24:02.703Z,5.85
2018-06-19T09:26:31.764Z,5.95
2018-06-19T09:29:00.796Z,5.70
2018-06-19T09:31:29.917Z,6.28
2018-06-19T09:33:59.006Z,5.28
2018-06-19T09:36:28.086Z,6.10
2018-06-19T09:38:57.197Z,6.12
2018-06-19T09:41:26.207Z,6.25
2018-06-19T09:43:55.231Z,6.10
2018-06-19T09:46:24.222Z,6.07
2018-06-19T09:48:53.537Z,6.22
2018-06-19T09:51:23.178Z,5.85
2018-06-19T09:53:52.901Z,5.80
2018-06-19T09:56:22.273Z,5.50
2018-06-19T09:58:52.632Z,5.17
2018-06-19T10:01:21.764Z,5.40
2018-06-19T10:03:51.448Z,5.97
2018-06-19T10:06:21.302Z,6.20
2018-06-19T10:08:51.054Z,5.83
2018-06-19T10:11:22.013Z,6.67
2018-06-19T10:13:52.256Z,6.33
2018-06-19T10:16:22.986Z,5.97
2018-06-19T10:18:52.767Z,6.17
2018-06-19T10:21:21.836Z,5.90
2018-06-19T10:23:51.890Z,5.60
2018-06-19T10:26:21.894Z,6.20
2018-06-19T10:28:51.570Z,5.72
2018-06-19T10:31:21.792Z,6.13
2018-06-19T10:33:50.922Z,6.10
2018-06-19T10:36:20.023Z,5.28
2018-06-19T10:38:49.226Z,5.30
2018-06-19T10:41:18.259Z,5.43
2018-06-19T10:43:47.866Z,5.43
2018-06-19T10:46:17.334Z,5.20
2018-06-19T10:48:46.716Z,5.03
2018-06-19T10:51:17.439Z,5.75
2018-06-19T10:53:46.746Z,4.55
2018-06-19T10:56:16.645Z,5.00
2018-06-19T10:58:46.538Z,5.00
2018-06-19T11:01:15.991Z,5.30
2018-06-19T11:03:45.790Z,5.00
2018-06-19T11:06:14.775Z,5.67
2018-06-19T11:08:44.448Z,5.28
2018-06-19T11:11:13.819Z,5.47
2018-06-19T11:13:42.787Z,5.80
2018-06-19T11:16:12.703Z,5.03
2018-06-19T11:18:42.949Z,5.70
2018-06-19T11:21:12.658Z,5.33
2018-06-19T11:23:42.721Z,5.03
2018-06-19T11:26:12.629Z,5.05
2018-06-19T11:28:44.164Z,5.15
2018-06-19T11:31:12.996Z,5.40
2018-06-19T11:33:42.343Z,5.30
2018-06-19T11:36:11.715Z,5.12
2018-06-19T11:38:41.469Z,5.12
2018-06-19T11:41:11.041Z,5.05
2018-06-19T11:43:40.742Z,4.67
2018-06-19T11:46:10.281Z,5.10
2018-06-19T11:48:39.480Z,5.45
2018-06-19T11:51:08.571Z,4.92
2018-06-19T11:53:37.736Z,5.30
2018-06-19T11:56:06.694Z,5.58
2018-06-19T11:58:35.877Z,5.90
2018-06-19T12:01:05.554Z,6.37
2018-06-19T12:03:34.571Z,5.72
2018-06-19T12:06:03.652Z,6.40
2018-06-19T12:08:32.878Z,6.65
2018-06-19T12:11:01.919Z,5.85
2018-06-19T12:13:30.898Z,6.40
2018-06-19T12:15:59.862Z,6.30
2018-06-19T12:18:28.940Z,7.17
2018-06-19T12:20:58.010Z,7.58
2018-06-19T12:23:27.402Z,5.60
2018-06-19T12:25:56.523Z,5.10
2018-06-19T12:28:25.690Z,4.75
2018-06-19T12:30:54.717Z,3.50
2018-06-19T12:33:23.800Z,4.30
2018-06-19T12:35:52.843Z,3.40
2018-06-19T12:38:21.838Z,3.87
2018-06-19T12:40:50.882Z,3.60
2018-06-19T12:43:19.853Z,3.62
2018-06-19T12:45:48.882Z,5.10
2018-06-19T12:48:17.827Z,4.92
2018-06-19T12:52:01.190Z,3.65
2018-06-19T12:55:42.962Z,3.15
2018-06-19T12:58:11.951Z,3.83
2018-06-19T13:00:41.091Z,3.40
2018-06-19T13:03:15.094Z,3.33
2018-06-19T13:05:55.268Z,3.67
2018-06-19T13:08:24.330Z,3.93
2018-06-19T13:10:53.374Z,3.80
2018-06-19T13:13:33.326Z,3.67
2018-06-19T13:16:02.347Z,3.60
2018-06-19T13:18:43.123Z,3.20
2018-06-19T13:21:12.240Z,3.30
2018-06-19T13:23:41.221Z,3.27
2018-06-19T13:26:10.371Z,3.65
2018-06-19T13:29:55.895Z,3.25
2018-06-19T13:32:25.135Z,3.02
2018-06-19T13:34:54.162Z,3.07
2018-06-19T13:37:23.166Z,3.10
2018-06-19T13:41:05.367Z,3.30
2018-06-19T13:43:45.673Z,2.60
2018-06-19T13:46:14.810Z,2.77
2018-06-19T13:48:43.870Z,2.80
2018-06-19T13:51:13.817Z,2.90
2018-06-19T13:53:43.706Z,2.63
2018-06-19T13:57:29.783Z,3.05
2018-06-19T13:59:59.703Z,2.92
2018-06-19T14:02:28.707Z,2.60
2018-06-19T14:04:57.914Z,2.50
2018-06-19T14:07:27.760Z,2.90
2018-06-19T14:10:07.810Z,2.90
2018-06-19T14:13:03.570Z,3.00
2018-06-19T14:15:35.266Z,3.30
2018-06-19T14:18:04.511Z,3.02
2018-06-19T14:20:33.579Z,3.00
2018-06-19T14:23:02.611Z,2.80
2018-06-19T14:25:31.671Z,2.83
2018-06-19T14:28:00.734Z,3.02
2018-06-19T14:30:29.806Z,2.95
2018-06-19T14:32:58.971Z,2.83
2018-06-19T14:35:27.947Z,2.83
2018-06-19T14:37:57.086Z,2.70
2018-06-19T14:40:26.114Z,2.87
2018-06-19T14:42:55.099Z,3.00
2018-06-19T14:45:24.120Z,2.60
2018-06-19T14:47:53.163Z,2.80
2018-06-19T14:50:22.155Z,2.50
2018-06-19T14:52:51.175Z,2.95
2018-06-19T14:55:20.202Z,2.42
2018-06-19T14:57:49.175Z,2.75
2018-06-19T15:00:18.338Z,2.70
2018-06-19T15:02:47.588Z,2.60
2018-06-19T15:05:16.898Z,2.63
2018-06-19T15:07:51.858Z,2.45
2018-06-19T15:10:21.275Z,2.20
2018-06-19T15:12:50.449Z,2.00
2018-06-19T15:15:19.611Z,2.10
2018-06-19T15:17:48.619Z,2.17
2018-06-19T15:20:18.815Z,2.10
2018-06-19T15:22:48.066Z,2.35
2018-06-19T15:25:17.074Z,2.10
2018-06-19T15:27:45.826Z,2.60
2018-06-19T15:30:15.499Z,2.67
2018-06-19T15:32:44.128Z,4.08
2018-06-19T15:35:13.418Z,2.10
2018-06-19T15:37:43.259Z,2.00
2018-06-19T15:40:12.261Z,2.10
2018-06-19T15:42:41.632Z,1.90
2018-06-19T15:45:11.021Z,2.20
2018-06-19T15:47:40.223Z,1.90
2018-06-19T15:50:09.443Z,1.80
2018-06-19T15:52:38.547Z,1.75
2018-06-19T15:55:07.691Z,1.90
2018-06-19T15:57:36.667Z,1.80
2018-06-19T16:00:05.914Z,1.90
2018-06-19T16:02:35.360Z,1.90
2018-06-19T16:05:04.431Z,1.82
2018-06-19T16:07:33.434Z,2.22
2018-06-19T16:10:02.455Z,2.20
2018-06-19T16:12:31.431Z,2.10
2018-06-19T16:15:00.476Z,2.10
2018-06-19T16:17:29.457Z,2.30
2018-06-19T16:19:58.495Z,2.12
2018-06-19T16:22:27.446Z,2.35
2018-06-19T16:24:56.615Z,2.55
2018-06-19T16:27:25.810Z,2.37
2018-06-19T16:29:54.756Z,2.15
2018-06-19T16:32:23.807Z,2.75
2018-06-19T16:34:52.786Z,2.75
2018-06-19T16:37:21.811Z,2.77
2018-06-19T16:39:50.883Z,3.00
2018-06-19T16:42:20.459Z,3.10
2018-06-19T16:44:49.415Z,2.70
2018-06-19T16:47:18.560Z,3.02
2018-06-19T16:49:47.191Z,2.80
2018-06-19T16:52:16.578Z,2.70
2018-06-19T16:54:46.351Z,2.92
2018-06-19T16:57:15.624Z,3.15
2018-06-19T16:59:46.487Z,3.50
2018-06-19T17:02:16.200Z,3.00
2018-06-19T17:04:45.267Z,3.20
2018-06-19T17:07:14.507Z,3.50
2018-06-19T17:09:43.642Z,3.35
2018-06-19T17:12:13.410Z,3.20
2018-06-19T17:14:42.023Z,3.40
2018-06-19T17:17:11.348Z,3.02
2018-06-19T17:19:40.680Z,3.20
2018-06-19T17:22:09.797Z,3.10
2018-06-19T17:24:38.982Z,3.10
2018-06-19T17:27:08.056Z,3.30
2018-06-19T17:29:37.571Z,3.80
2018-06-19T17:32:06.679Z,3.60
2018-06-19T17:34:35.568Z,3.10
2018-06-19T17:37:04.924Z,3.30
2018-06-19T17:39:33.898Z,3.52
2018-06-19T17:42:03.136Z,3.45
2018-06-19T17:44:32.171Z,3.50
2018-06-19T17:47:01.326Z,3.37
2018-06-19T17:49:30.351Z,3.57
2018-06-19T17:51:59.369Z,3.17
2018-06-19T17:54:28.355Z,3.90
2018-06-19T17:56:57.443Z,3.62
2018-06-19T17:59:26.573Z,3.20
2018-06-19T18:01:55.549Z,3.35
2018-06-19T18:04:24.799Z,3.12
2018-06-19T18:06:53.889Z,3.37
2018-06-19T18:09:22.903Z,3.50
2018-06-19T18:11:51.887Z,3.58
2018-06-19T18:14:20.926Z,3.20
2018-06-19T18:16:50.007Z,3.77
2018-06-19T18:19:18.626Z,3.70
2018-06-19T18:21:48.186Z,3.37
2018-06-19T18:24:17.409Z,3.50
2018-06-19T18:26:46.438Z,3.37
2018-06-19T18:29:15.463Z,3.50
2018-06-19T18:31:44.463Z,3.55
2018-06-19T18:34:13.435Z,3.30
2018-06-19T18:36:42.538Z,2.83
2018-06-19T18:39:12.547Z,3.10
2018-06-19T18:41:42.002Z,3.02
2018-06-19T18:44:11.031Z,3.10
2018-06-19T18:46:39.976Z,3.25
2018-06-19T18:49:09.046Z,3.50
2018-06-19T18:51:38.027Z,3.52
2018-06-19T18:54:07.106Z,3.60
2018-06-19T18:56:36.142Z,3.10
2018-06-19T18:59:05.178Z,3.45
2018-06-19T19:01:34.134Z,3.50
2018-06-19T19:04:03.243Z,3.17
2018-06-19T19:06:32.264Z,3.47
2018-06-19T19:09:01.295Z,3.25
2018-06-19T19:11:30.425Z,3.00
2018-06-19T19:13:59.543Z,3.40
2018-06-19T19:16:33.643Z,3.60
2018-06-19T19:19:04.437Z,3.65
2018-06-19T19:21:33.515Z,3.85
2018-06-19T19:37:15.517Z,6.73
2018-06-19T19:39:44.609Z,5.25
2018-06-19T19:42:13.785Z,5.35
2018-06-19T19:44:43.345Z,5.55
2018-06-19T19:47:17.748Z,5.50
2018-06-19T19:49:47.089Z,5.58
2018-06-19T19:52:16.367Z,5.60
2018-06-19T19:54:45.812Z,5.50
2018-06-19T19:57:20.040Z,4.95
2018-06-19T19:59:49.667Z,4.95
2018-06-19T20:02:19.042Z,5.23
2018-06-19T20:04:48.385Z,5.17
2018-06-19T20:07:17.966Z,5.47
2018-06-19T20:09:47.655Z,6.00
2018-06-19T20:12:17.220Z,5.70
2018-06-19T20:14:46.861Z,5.42
2018-06-19T20:17:16.832Z,5.77
2018-06-19T20:19:46.545Z,5.83
2018-06-19T20:22:16.364Z,5.90
2018-06-19T20:24:45.999Z,6.33
2018-06-19T20:27:15.534Z,5.90
2018-06-19T20:29:44.952Z,6.33
2018-06-19T20:32:14.190Z,6.45
2018-06-19T20:34:43.280Z,6.10
2018-06-19T20:37:12.992Z,6.30
2018-06-19T20:39:42.300Z,6.35
2018-06-19T20:42:11.457Z,6.20
2018-06-19T20:44:40.773Z,6.03
2018-06-19T20:47:09.996Z,6.30
2018-06-19T20:49:39.281Z,6.50
2018-06-19T20:52:08.877Z,6.58
2018-06-19T20:54:38.190Z,6.30
2018-06-19T20:57:07.656Z,6.50
2018-06-19T20:59:37.250Z,6.42
2018-06-19T21:02:06.545Z,6.62
2018-06-19T21:04:35.981Z,5.90
2018-06-19T21:07:05.412Z,6.55
2018-06-19T21:09:34.607Z,6.20
2018-06-19T21:12:03.841Z,6.07
2018-06-19T21:14:36.385Z,5.90
2018-06-19T21:17:05.766Z,6.40
2018-06-19T21:19:34.944Z,6.03
2018-06-19T21:22:04.295Z,5.87
2018-06-19T21:24:33.536Z,6.47
2018-06-19T21:27:03.001Z,7.10
2018-06-19T21:29:32.480Z,7.20
2018-06-19T21:32:01.909Z,7.62
2018-06-19T21:34:31.068Z,7.28
2018-06-19T21:37:00.177Z,6.87
2018-06-19T21:39:29.424Z,7.45
2018-06-19T21:41:58.707Z,6.92
2018-06-19T21:44:28.057Z,6.60
2018-06-19T21:46:57.640Z,7.35
2018-06-19T21:49:26.780Z,7.33
2018-06-19T21:51:55.947Z,7.08
2018-06-19T21:54:24.984Z,6.85
2018-06-19T21:56:54.179Z,6.47
2018-06-19T21:59:23.630Z,6.90
2018-06-19T22:01:52.829Z,6.53
2018-06-19T22:04:22.136Z,7.15
2018-06-19T22:06:51.320Z,6.58
2018-06-19T22:09:20.672Z,6.80
2018-06-19T22:11:49.936Z,7.33
2018-06-19T22:14:19.081Z,6.87
2018-06-19T22:16:48.269Z,7.05
2018-06-19T22:19:17.523Z,6.67
2018-06-19T22:21:46.732Z,6.50
2018-06-19T22:24:15.988Z,5.97
2018-06-19T22:26:45.418Z,6.75
2018-06-19T22:29:14.785Z,6.80
2018-06-19T22:31:44.170Z,6.70
2018-06-19T22:34:13.488Z,4.80
2018-06-19T22:36:42.796Z,6.00
2018-06-19T22:39:12.034Z,6.75
2018-06-19T22:41:41.528Z,6.70
2018-06-19T22:44:10.837Z,6.50
2018-06-19T22:46:40.157Z,6.62
2018-06-19T22:49:09.516Z,6.95
2018-06-19T22:51:38.547Z,6.58
2018-06-19T22:54:08.044Z,4.60
2018-06-19T22:56:37.379Z,6.47
2018-06-19T22:59:06.802Z,4.60
2018-06-19T23:01:36.121Z,4.90
2018-06-19T23:04:05.432Z,6.10
2018-06-19T23:06:34.820Z,3.25
2018-06-19T23:09:04.550Z,5.12
2018-06-19T23:11:34.090Z,3.72
2018-06-19T23:14:03.392Z,3.10
2018-06-19T23:16:32.757Z,6.30
2018-06-19T23:19:01.891Z,5.87
2018-06-19T23:21:31.122Z,5.72
2018-06-19T23:24:00.544Z,5.03
2018-06-19T23:26:29.749Z,4.37
2018-06-19T23:28:59.046Z,4.92
2018-06-19T23:31:28.580Z,5.70
2018-06-19T23:33:57.757Z,3.58
2018-06-19T23:36:27.276Z,3.35
2018-06-19T23:38:56.710Z,5.90
2018-06-19T23:41:26.148Z,5.80
2018-06-19T23:43:55.569Z,5.50
2018-06-19T23:46:25.104Z,5.58
2018-06-19T23:48:54.468Z,5.58
2018-06-19T23:51:23.754Z,5.72
2018-06-19T23:53:53.128Z,5.62
2018-06-19T23:56:22.436Z,4.83
2018-06-19T23:58:51.590Z,2.83
